• Join FlightAware (Why Join?)
  • Login
  • US Flag 
10:51PM EDT


 

Airport Tracker/Info


-or-


 

Live Flight TrackerFlight Track Log ✈ UAL709 ✈ 07-May-2013 ✈ KORD - KSAN

Flight Track Log - Related Links

Times and Time Zones

All times are in EDT time to prevent confusion due to time zone crossing. See the UAL709 flight status page for this flight to view local times or setup timezone preferences in your user account.

Time Position Orientation Groundspeed Altitude Reporting Facility
EDT Latitude Longitude Course Direction KTS MPH feet Rate Location/Type
09:25AM 42.0000 -87.9500 334° Northwest 173 199 1,900  Level Chicago TRACON
09:26AM 42.0500 -87.9833 334° Northwest 202 232 3,900 2,160 Climbing Chicago TRACON
09:29AM 42.0486 -88.2061 270° West 278 320 9,600 2,160 Climbing Chicago Center
09:30AM 42.0089 -88.3344 247° West 311 358 11,600 1,980 Climbing Chicago Center
09:31AM 41.9725 -88.4550 248° West 346 398 13,800 2,100 Climbing Chicago Center
09:32AM 41.9378 -88.5783 249° West 354 407 16,000 1,920 Climbing Chicago Center
09:33AM 41.9114 -88.7078 255° West 362 417 17,800 1,740 Climbing Chicago Center
09:34AM 41.8997 -88.8447 264° West 372 428 19,700 1,860 Climbing Chicago Center
09:35AM 41.8847 -89.0161 263° West 385 443 21,700 1,680 Climbing Chicago Center
09:36AM 41.8717 -89.1592 263° West 390 449 23,200 1,320 Climbing Chicago Center
09:37AM 41.8575 -89.3078 263° West 401 461 24,500 1,200 Climbing Chicago Center
09:38AM 41.8358 -89.4547 259° West 403 464 25,700 1,140 Climbing Chicago Center
09:39AM 41.8050 -89.6381 257° West 418 481 26,900 1,080 Climbing Chicago Center
09:40AM 41.7828 -89.7914 259° West 431 496 28,000 1,020 Climbing Chicago Center
09:41AM 41.7575 -89.9494 258° West 437 503 29,100 1,020 Climbing Chicago Center
09:42AM 41.7328 -90.1069 258° West 437 503 30,200 1,020 Climbing Chicago Center
09:43AM 41.7075 -90.2669 258° West 441 507 31,300 1,260 Climbing Chicago Center
09:44AM 41.6800 -90.4292 257° West 446 513 32,900 1,260 Climbing Chicago Center
09:46AM 41.6508 -90.6089 258° West 419 482 34,000 480 Climbing Chicago Center
09:47AM 41.6258 -90.7567 257° West 423 487 34,000  Level Chicago Center
09:48AM 41.6000 -90.9144 258° West 435 501 34,000  Level Chicago Center
09:49AM 41.5733 -91.0747 258° West 441 507 34,000 -60 Level Chicago Center
09:50AM 41.5414 -91.2606 257° West 434 499 33,900  Descending Chicago Center
09:51AM 41.5142 -91.4158 257° West 432 497 34,000  Climbing Chicago Center
09:52AM 41.4883 -91.5700 257° West 430 495 34,000  Level Chicago Center
09:53AM 41.4614 -91.7253 257° West 431 496 34,000  Level Chicago Center
09:54AM 41.4336 -91.8822 257° West 436 502 34,000  Level Chicago Center
09:55AM 41.4006 -92.0683 257° West 434 499 34,100  Climbing Chicago Center
09:56AM 41.3725 -92.2225 256° West 432 497 34,100 -60 Level Chicago Center
09:57AM 41.3428 -92.3878 257° West 429 494 34,000 -60 Descending Chicago Center
09:58AM 41.3144 -92.5347 256° West 420 483 34,000  Level Chicago Center
09:59AM 41.2992 -92.6294 258° West 425 489 34,000  Level Minneapolis Center
10:00AM 41.2714 -92.7792 256° West 424 488 34,000  Level Minneapolis Center
10:01AM 41.2431 -92.9269 256° West 420 483 34,000  Level Minneapolis Center
10:02AM 41.2156 -93.0778 256° West 423 487 34,000  Level Minneapolis Center
10:03AM 41.1878 -93.2236 256° West 417 480 34,000  Level Minneapolis Center
10:04AM 41.1542 -93.4000 256° West 415 478 34,000  Level Minneapolis Center
10:05AM 41.1267 -93.5436 256° West 409 471 34,000  Level Minneapolis Center
10:06AM 41.0994 -93.6903 256° West 412 474 34,000  Level Minneapolis Center
10:07AM 41.0697 -93.8383 255° West 417 480 34,000  Level Minneapolis Center
10:08AM 41.0469 -93.9561 256° West 418 481 34,000  Level Minneapolis Center
10:09AM 41.0075 -94.1614 256° West 415 478 34,000  Level Minneapolis Center
10:10AM 40.9772 -94.3086 255° West 417 480 34,000  Level Minneapolis Center
10:11AM 40.9469 -94.4567 255° West 419 482 34,000  Level Minneapolis Center
10:12AM 40.9217 -94.5733 254° West 419 482 34,000  Level Minneapolis Center
10:13AM 40.8864 -94.7467 255° West 414 476 34,000  Level Minneapolis Center
10:14AM 40.8506 -94.9242 255° West 415 478 34,000  Level Minneapolis Center
10:15AM 40.8131 -95.1011 254° West 416 479 34,000  Level Minneapolis Center
10:16AM 40.7825 -95.2472 255° West 414 476 34,000  Level Minneapolis Center
10:17AM 40.7514 -95.3944 254° West 415 478 34,000  Level Minneapolis Center
10:18AM 40.7203 -95.5408 254° West 413 475 34,000  Level Minneapolis Center
10:19AM 40.6903 -95.6856 255° West 409 471 34,000  Level Minneapolis Center
10:20AM 40.6589 -95.8319 254° West 412 474 34,000  Level Minneapolis Center
10:21AM 40.6269 -95.9778 254° West 413 475 34,000  Level Minneapolis Center
10:22AM 40.5892 -96.1519 254° West 411 473 34,000  Level Minneapolis Center
10:23AM 40.5575 -96.2975 254° West 412 474 34,000  Level Minneapolis Center
10:25AM 40.5256 -96.4425 254° West 412 474 34,000  Level Minneapolis Center
10:26AM 40.4933 -96.5867 254° West 411 473 34,000  Level Minneapolis Center
10:27AM 40.4611 -96.7311 254° West 411 473 34,000  Level Minneapolis Center
10:28AM 40.4286 -96.8758 254° West 412 474 34,000  Level Minneapolis Center
10:29AM 40.3956 -97.0208 253° West 413 475 34,000  Level Minneapolis Center
10:30AM 40.3558 -97.1933 253° West 412 474 34,000  Level Minneapolis Center
10:31AM 40.3222 -97.3394 253° West 416 479 34,000  Level Minneapolis Center
10:32AM 40.2903 -97.4786 253° West 418 481 34,000  Level Minneapolis Center
10:33AM 40.2567 -97.6231 253° West 416 479 34,000  Level Minneapolis Center
10:34AM 40.2156 -97.7994 253° West 419 482 34,000  Level Minneapolis Center
10:35AM 40.1808 -97.9461 253° West 420 483 34,000  Level Minneapolis Center
10:36AM 40.1456 -98.0925 253° West 421 484 34,000  Level Minneapolis Center
10:37AM 40.1103 -98.2394 253° West 422 486 34,000  Level Minneapolis Center
10:38AM 40.0764 -98.3861 253° West 422 486 34,000  Level Minneapolis Center
10:39AM 40.0408 -98.5319 252° West 421 484 34,000  Level Minneapolis Center
10:40AM 40.0047 -98.6764 252° West 420 483 34,000  Level Minneapolis Center
10:41AM 39.9692 -98.8228 252° West 421 484 34,000  Level Minneapolis Center
10:42AM 39.9261 -99.0006 253° West 426 490 34,000  Level Minneapolis Center
10:43AM 39.8886 -99.1489 252° West 433 498 34,000  Level Denver Center
10:44AM 39.8517 -99.2972 252° West 432 497 34,000  Level Denver Center
10:45AM 39.8142 -99.4450 252° West 430 495 34,000  Level Denver Center
10:46AM 39.7694 -99.6217 252° West 429 494 34,000  Level Denver Center
10:47AM 39.7319 -99.7692 252° West 428 493 34,000  Level Denver Center
10:48AM 39.6942 -99.9158 252° West 429 494 34,000  Level Denver Center
10:50AM 39.6547 -100.0681 251° West 429 494 34,000  Level Denver Center
10:51AM 39.6067 -100.2558 252° West 429 494 34,000  Level Denver Center
10:52AM 39.5694 -100.3969 251° West 431 496 34,000  Level Denver Center
10:53AM 39.5261 -100.5608 251° West 431 496 34,000  Level Denver Center
10:54AM 39.4883 -100.7006 251° West 429 494 34,000  Level Denver Center
10:55AM 39.4511 -100.8403 251° West 428 493 34,000  Level Denver Center
10:56AM 39.4072 -101.0039 251° West 431 496 34,000  Level Denver Center
10:57AM 39.3706 -101.1436 251° West 429 494 34,000  Level Denver Center
10:58AM 39.3264 -101.3053 251° West 427 491 34,000  Level Denver Center
10:59AM 39.2892 -101.4431 251° West 427 491 34,000  Level Denver Center
11:00AM 39.2475 -101.5928 250° West 429 494 34,000  Level Denver Center
11:01AM 39.2022 -101.7553 250° West 432 497 34,000  Level Denver Center
11:02AM 39.1517 -101.9400 251° West 431 496 34,000  Level Denver Center
11:03AM 39.1131 -102.0767 250° West 427 491 34,000  Level Denver Center
11:04AM 39.0686 -102.2344 250° West 421 484 34,000  Level Denver Center
11:05AM 39.0314 -102.3675 250° West 415 478 34,000  Level Denver Center
11:06AM 38.9922 -102.5011 249° West 417 480 34,000  Level Denver Center
11:07AM 38.9483 -102.6583 250° West 420 483 34,000  Level Denver Center
11:08AM 38.9039 -102.8133 250° West 422 486 34,100  Climbing Denver Center
11:09AM 38.8617 -102.9547 249° West 419 482 34,100 -60 Level Denver Center
11:10AM 38.8228 -103.0933 250° West 410 472 34,000 -60 Descending Denver Center
11:12AM 38.7819 -103.2306 249° West 408 470 34,000  Level Denver Center
11:13AM 38.7436 -103.3631 250° West 396 456 34,000 -60 Level Denver Center
11:14AM 38.7025 -103.5019 249° West 397 457 33,900  Descending Denver Center
11:15AM 38.6650 -103.6272 249° West 397 457 34,000  Climbing Denver Center
11:16AM 38.6222 -103.7725 249° West 393 452 34,000  Level Denver Center
11:17AM 38.5847 -103.8967 249° West 393 452 34,000  Level Denver Center
11:18AM 38.5408 -104.0422 249° West 394 453 34,000  Level Denver Center
11:19AM 38.5011 -104.1775 249° West 390 449 34,000  Level Denver Center
11:20AM 38.4681 -104.2839 248° West 385 443 34,000  Level Denver Center
11:21AM 38.4217 -104.4344 249° West 387 445 34,000  Level Denver Center
11:22AM 38.3892 -104.5431 249° West 389 448 34,000  Level Denver Center
11:23AM 38.3419 -104.6950 248° West 390 449 34,000  Level Denver Center
11:24AM 38.2978 -104.8367 248° West 388 447 34,100  Climbing Denver Center
11:25AM 38.2600 -104.9586 249° West 387 445 34,000 -60 Descending Denver Center
11:26AM 38.2100 -105.1197 248° West 385 443 34,000  Level Denver Center
11:27AM 38.1661 -105.2594 248° West 383 441 34,000  Level Denver Center
11:28AM 38.1278 -105.3786 248° West 382 440 34,000  Level Denver Center
11:29AM 38.0831 -105.5194 248° West 384 442 34,000  Level Denver Center
11:30AM 38.0453 -105.6383 248° West 382 440 34,000  Level Denver Center
11:31AM 38.0064 -105.7594 248° West 387 445 34,000  Level Denver Center
11:32AM 37.9611 -105.8992 248° West 385 443 34,000  Level Denver Center
11:33AM 37.9222 -106.0183 248° West 384 442 34,000  Level Denver Center
11:34AM 37.8783 -106.1572 248° West 382 440 34,000  Level Denver Center
11:35AM 37.8389 -106.2758 247° West 383 441 34,000  Level Denver Center
11:37AM 37.7972 -106.4036 248° West 380 437 34,000 60 Level Denver Center
11:38AM 37.7514 -106.5417 247° West 381 438 34,200 360 Climbing Denver Center
11:39AM 37.7128 -106.6611 248° West 384 442 34,900 720 Climbing Denver Center
11:40AM 37.6600 -106.8200 247° West 385 443 35,900 480 Climbing Denver Center
11:41AM 37.6136 -106.9586 247° West 384 442 36,000  Climbing Denver Center
11:42AM 37.5739 -107.0778 247° West 384 442 36,000  Level Denver Center
11:43AM 37.5333 -107.1964 247° West 386 444 36,000  Level Denver Center
11:44AM 37.4875 -107.3344 247° West 383 441 36,000  Level Denver Center
11:45AM 37.4472 -107.4511 247° West 380 437 36,000  Level Denver Center
11:46AM 37.4006 -107.5889 247° West 383 441 36,000  Level Denver Center
11:47AM 37.3594 -107.7069 246° West 385 443 36,000  Level Denver Center
11:48AM 37.3133 -107.8414 247° West 376 433 36,000 -60 Level Denver Center
11:49AM 37.2736 -107.9572 247° West 378 435 35,900  Descending Denver Center
11:50AM 37.2258 -108.0950 247° West 383 441 36,000 60 Climbing Denver Center
11:51AM 37.1858 -108.2103 246° West 378 435 36,100  Climbing Denver Center
11:52AM 37.1392 -108.3450 247° West 378 435 36,000 -60 Descending Denver Center
11:53AM 37.0992 -108.4572 246° West 372 428 36,000  Level Denver Center
11:54AM 37.0533 -108.5875 246° West 368 423 36,000  Level Denver Center
11:55AM 37.0125 -108.6989 245° Southwest 368 423 36,000  Level Denver Center
11:56AM 36.9664 -108.8333 247° West 375 432 36,000  Level Denver Center
11:57AM 36.9256 -108.9461 246° West 374 430 36,000  Level Denver Center
11:58AM 36.8783 -109.0786 246° West 374 430 36,000  Level Denver Center
11:59AM 36.8386 -109.1906 246° West 371 427 36,000  Level Denver Center
12:01PM 36.7914 -109.3214 246° West 372 428 36,000  Level Denver Center
12:02PM 36.7503 -109.4325 245° Southwest 370 426 36,000  Level Denver Center
12:03PM 36.6661 -109.6550 245° Southwest 374 430 36,000  Level Los Angeles Center
12:04PM 36.6628 -109.6733 257° West 369 425 36,000  Level Denver Center
12:05PM 36.6072 -109.8219 245° Southwest 371 427 36,000  Level Denver Center
12:06PM 36.5672 -109.9322 246° West 367 422 36,000  Level Denver Center
12:07PM 36.5203 -110.0594 245° Southwest 365 420 36,000  Level Denver Center
12:08PM 36.4742 -110.1836 245° Southwest 366 421 36,000  Level Denver Center
12:09PM 36.4336 -110.2975 246° West 362 417 36,000  Level Denver Center
12:10PM 36.3892 -110.4136 245° Southwest 368 423 36,000  Level Denver Center
12:11PM 36.3458 -110.5278 245° Southwest 368 423 36,000  Level Denver Center
12:12PM 36.3033 -110.6433 245° Southwest 368 423 36,000  Level Denver Center
12:13PM 36.2589 -110.7586 244° Southwest 370 426 36,000  Level Denver Center
12:14PM 36.2067 -110.8972 245° Southwest 369 425 36,000  Level Denver Center
12:15PM 36.1622 -111.0111 244° Southwest 369 425 36,000  Level Denver Center
12:16PM 36.1286 -111.1025 246° West 366 421 36,000  Level Denver Center
12:17PM 36.0750 -111.2381 244° Southwest 365 420 36,000  Level Denver Center
12:18PM 36.0319 -111.3525 245° Southwest 367 422 36,000  Level Denver Center
12:19PM 35.9883 -111.4644 244° Southwest 364 419 36,000 120 Level Denver Center
12:20PM 35.9353 -111.5994 244° Southwest 364 419 36,300 420 Climbing Denver Center
12:21PM 35.8917 -111.7133 245° Southwest 366 421 36,900 600 Climbing Denver Center
12:22PM 35.8589 -111.7922 243° Southwest 367 422 37,400 600 Climbing Los Angeles Center
12:23PM 35.8144 -111.9061 244° Southwest 370 426 38,000 240 Climbing Los Angeles Center
12:24PM 35.7697 -112.0225 245° Southwest 375 432 38,000  Level Los Angeles Center
12:25PM 35.7142 -112.1631 244° Southwest 384 442 38,000  Level Los Angeles Center
12:26PM 35.6678 -112.2794 244° Southwest 382 440 38,000  Level Los Angeles Center
12:27PM 35.6211 -112.3961 244° Southwest 382 440 38,000 -60 Level Los Angeles Center
12:28PM 35.5756 -112.5103 244° Southwest 375 432 37,900  Descending Los Angeles Center
12:29PM 35.5217 -112.6436 244° Southwest 377 434 38,000  Climbing Los Angeles Center
12:31PM 35.4664 -112.7836 244° Southwest 380 437 38,000  Level Los Angeles Center
12:32PM 35.4086 -112.9242 243° Southwest 383 441 38,000 -480 Level Los Angeles Center
12:33PM 35.3578 -113.0500 244° Southwest 376 433 37,100 -900 Descending Los Angeles Center
12:34PM 35.3133 -113.1603 244° Southwest 363 418 36,200 -960 Descending Los Angeles Center
12:35PM 35.2683 -113.2681 243° Southwest 357 411 35,200 -600 Descending Los Angeles Center
12:36PM 35.2233 -113.3792 244° Southwest 358 412 35,000 -120 Descending Los Angeles Center
12:37PM 35.1792 -113.4867 243° Southwest 357 411 35,000  Level Los Angeles Center
12:38PM 35.1356 -113.5942 244° Southwest 355 409 35,000  Level Los Angeles Center
12:39PM 35.0922 -113.7003 244° Southwest 353 406 35,000  Level Los Angeles Center
12:40PM 35.0478 -113.8061 243° Southwest 353 406 35,000 -300 Level Los Angeles Center
12:41PM 34.9967 -113.9300 243° Southwest 345 397 34,500 -660 Descending Los Angeles Center
12:42PM 34.9531 -114.0306 242° Southwest 332 382 33,700 -900 Descending Los Angeles Center
12:43PM 34.9106 -114.1297 242° Southwest 331 381 32,700 -960 Descending Los Angeles Center
12:44PM 34.8694 -114.2300 243° Southwest 331 381 31,800 -900 Descending Los Angeles Center
12:45PM 34.8269 -114.3292 242° Southwest 331 381 30,900 -840 Descending Los Angeles Center
12:46PM 34.7850 -114.4289 243° Southwest 333 383 30,100 -480 Descending Los Angeles Center
12:47PM 34.7153 -114.5333 231° Southwest 333 383 30,000 -120 Descending Los Angeles Center
12:48PM 34.6461 -114.6117 223° Southwest 336 387 29,900 -60 Descending Los Angeles Center
12:49PM 34.5778 -114.6903 223° Southwest 338 389 29,900  Level Los Angeles Center
12:50PM 34.5103 -114.7686 224° Southwest 337 388 29,900  Level Los Angeles Center
12:51PM 34.4417 -114.8467 223° Southwest 338 389 29,900  Level Los Angeles Center
12:53PM 34.3744 -114.9267 224° Southwest 339 390 30,000  Climbing Los Angeles Center
12:54PM 34.3014 -115.0008 220° Southwest 342 394 29,900  Descending Los Angeles Center
12:55PM 34.2181 -115.0967 224° Southwest 343 395 30,000  Climbing Los Angeles Center
12:56PM 34.1486 -115.1725 222° Southwest 341 392 29,900  Descending Los Angeles Center
12:57PM 34.0786 -115.2511 223° Southwest 344 396 30,000  Climbing Los Angeles Center
12:58PM 34.0083 -115.3294 223° Southwest 343 395 29,900  Descending Los Angeles Center
12:59PM 33.9389 -115.4072 223° Southwest 342 394 30,000 -120 Climbing Los Angeles Center
01:00PM 33.8683 -115.4861 223° Southwest 345 397 29,700 -720 Descending Los Angeles Center
01:01PM 33.7839 -115.5792 222° Southwest 344 396 28,600 -1,020 Descending Los Angeles Center
01:02PM 33.7156 -115.6544 223° Southwest 337 388 27,600 -1,020 Descending Los Angeles Center
01:03PM 33.6483 -115.7300 223° Southwest 332 382 26,600 -960 Descending Los Angeles Center
01:04PM 33.5903 -115.8117 230° Southwest 327 376 25,700 -1,080 Descending Los Angeles Center
01:05PM 33.5392 -115.9014 236° Southwest 327 376 24,400 -1,800 Descending Los Angeles Center
01:06PM 33.4767 -116.0086 235° Southwest 329 379 22,000 -2,160 Descending Los Angeles Center
01:07PM 33.4256 -116.0964 235° Southwest 323 372 19,900 -2,040 Descending Los Angeles Center
01:08PM 33.3767 -116.1833 236° Southwest 317 365 17,800 -2,040 Descending Los Angeles Center
01:09PM 33.3194 -116.2592 228° Southwest 323 372 15,700 -2,040 Descending Los Angeles Center
01:10PM 33.2414 -116.3056 206° Southwest 316 364 13,700 -1,860 Descending Los Angeles Center
01:11PM 33.1636 -116.3517 206° Southwest 313 360 11,900 -900 Descending Los Angeles Center
01:12PM 33.0772 -116.4019 206° Southwest 294 338 11,900  Level Los Angeles Center
01:13PM 33.0086 -116.4422 206° Southwest 286 329 12,000 -420 Climbing Los Angeles Center
01:14PM 32.9397 -116.4844 207° Southwest 281 323 11,100 -1,440 Descending Los Angeles Center
01:15PM 32.8806 -116.5233 209° Southwest 264 304 9,100 -1,080 Descending Los Angeles Center
01:16PM 32.8053 -116.5758 210° Southwest 263 303 8,900 -780 Descending Los Angeles Center
01:17PM 32.7414 -116.6206 210° Southwest 268 308 7,600 -1,020 Descending Los Angeles Center
01:18PM 32.6836 -116.6722 217° Southwest 276 318 6,800 -840 Descending Los Angeles Center
01:19PM 32.6633 -116.7542 254° West 261 300 5,900 -480 Descending Los Angeles Center
01:20PM 32.6461 -116.8322 255° West 251 289 5,800 -780 Descending Los Angeles Center
01:21PM 32.6667 -116.9000 290° West 212 244 4,500 -1,020 Descending Southern California TRACON
01:22PM 32.6833 -116.9667 287° West 176 203 3,900 -900 Descending Southern California TRACON
01:23PM 32.7000 -117.0167 292° West 172 198 2,800 -900 Descending Southern California TRACON
01:24PM 32.7000 -117.0667 270° West 161 185 2,100 -840 Descending Southern California TRACON
01:25PM 32.7167 -117.1167 292° West 141 162 1,200 -900 Descending Southern California TRACON
01:26PM 32.7197 -117.1311 284° West 151 174 800 -600 Descending Los Angeles Center
01:27PM 32.7317 -117.1778 287° West 144 166 300 -540 Descending Los Angeles Center